Kapisillit

KL  EN  DA
ASIAQ
Weather Now GREENLAND SURVEY
Updated [WGT/WGST] Temperature [°C] Wind [m/s] Air pressure [hPa] Relative humidity [%] Precipitation [mm]
Present Wind chill Speed Max
17.01 13:00-4,1-13,212,2 ⇗14,01005830,0
17.01 12:00-3,5-12,512,6 ⇗14,81004720,0
17.01 11:00-3,7-12,511,3 ⇑14,01004790,1
17.01 10:00-3,2-11,811,5 ⇗14,01003740,0
17.01 09:00-2,2-11,013,4 ⇗16,41001700,0
17.01 08:00-2,5-11,313,3 ⇗16,01000770,1
17.01 07:00-2,6-9,78,0 ⇗13,4999890,2
17.01 06:00-2,5-8,35,5 ⇖13,3999870,2
17.01 05:00-1,2-6,75,4 ⇖12,3998560,0
17.01 04:00-1,8-8,78,2 ⇐14,0998560,1
17.01 03:00-1,6-8,99,1 ⇖18,8997520,0
17.01 02:00-1,8-7,96,3 ⇐14,3997500,2
17.01 01:00-2,8-4,81,4 ⇘4,4998530,0
17.01 00:00-3,10,01,1 ⇐2,6999480,0
16.01 23:00-4,3-7,72,2 ⇙4,11000500,0
16.01 22:00-6,2-10,22,4 ⇙4,11001500,0
16.01 21:00-6,7-10,42,1 ⇙3,41002490,0
16.01 20:00-8,0-13,43,2 ⇐5,51002510,0
16.01 19:00-8,4-13,93,3 ⇐5,91002520,0
16.01 18:00-10,8-17,94,4 ⇙6,61003660,0
16.01 17:00-9,9-16,44,0 ⇐5,61003570,0
16.01 16:00-9,8-16,94,7 ⇐6,81003590,0
16.01 15:00-10,8-17,84,3 ⇐5,61003650,0
16.01 14:00-10,8-17,43,9 ⇐5,81003660,0
16.01 13:00-11,4-18,74,5 ⇐6,01004720,0
Position: (64.4325,-50.27175)

[Back]